»·PEaware :: N9298L KBFL-KFUL

N9298L :: KBFL-KFUL

FLIGHT INFORMATION

Flight Status: Arrived
Operator: Privately registered:
United States
More flights under this callsign
Pilot: Brendan O. (14500)
Aircraft: PIPER PA-32 SARATOGA
(PA32)
More flights by this aircraft type
Origin: KBFL Meadows
United States
Destination: KFUL Fullerton Mun
United States
More flights between these airports :: More routes between these airports
Route: +MEADO3 LHS V459 DARTS V186 ADAMM V394 SLI
File this flight plan on PilotEdge
Remarks:
Altitude:
(Current/Filed)
9,000ft
Speed:
(Current/Filed)
145kts
Departed: 18-Jul-18 09:06 AM
Arrived: 18-Jul-18 10:06 AM
Distance/Time
Traveled:
108nm/1:00
Distance/Time
To Go:
Arrived

Flight Plot

Page will automatically refresh every two minutes.


Map Options




Map Legend


Flown Route
Filed Route
Departure Airport
Arrival Airport
Navaid (VOR, NDB)
Fix

Horizontal Profiles

Position Reports

Time Latitude Longitude Heading Altitude Ground
Speed
18-Jul-18 08:46 35.437598 -119.055128 139 499ft 0kts
18-Jul-18 08:48 35.437598 -119.055128 139 499ft 0kts
18-Jul-18 08:49 35.437598 -119.055128 139 499ft 0kts
18-Jul-18 08:50 35.437598 -119.055128 139 499ft 0kts
18-Jul-18 08:51 35.437598 -119.055128 139 499ft 0kts
18-Jul-18 08:52 35.437598 -119.055128 139 499ft 0kts
18-Jul-18 08:53 35.437598 -119.055128 139 499ft 0kts
18-Jul-18 08:54 35.437598 -119.055128 139 499ft 0kts
18-Jul-18 08:55 35.437598 -119.055128 139 499ft 0kts
18-Jul-18 08:56 35.437598 -119.055128 139 499ft 0kts
18-Jul-18 08:57 35.437598 -119.055128 139 499ft 0kts
18-Jul-18 08:58 35.437598 -119.055128 139 499ft 0kts
18-Jul-18 08:59 35.437598 -119.055128 139 499ft 0kts
18-Jul-18 09:00 35.437601 -119.056291 282 497ft 6kts
18-Jul-18 09:01 35.437447 -119.057400 246 496ft 11kts
18-Jul-18 09:02 35.434469 -119.054717 134 490ft 17kts
18-Jul-18 09:03 35.431281 -119.050863 134 491ft 15kts
18-Jul-18 09:04 35.426644 -119.045191 136 480ft 24kts
18-Jul-18 09:05 35.425609 -119.044834 247 477ft 0kts
18-Jul-18 09:06 35.425609 -119.044834 247 477ft 0kts
18-Jul-18 09:07 35.428678 -119.049846 317 480ft 67kts
18-Jul-18 09:08 35.448930 -119.074934 316 951ft 118kts
18-Jul-18 09:09 35.470960 -119.105415 309 1803ft 122kts
18-Jul-18 09:10 35.494008 -119.138347 312 2673ft 131kts
18-Jul-18 09:11 35.511415 -119.177047 251 3310ft 136kts
18-Jul-18 09:12 35.480989 -119.176307 146 4535ft 140kts
18-Jul-18 09:13 35.448376 -119.150081 148 5698ft 141kts
18-Jul-18 09:14 35.415508 -119.124343 149 6714ft 145kts
18-Jul-18 09:15 35.380952 -119.097475 143 7663ft 147kts
18-Jul-18 09:16 35.344574 -119.074590 147 8281ft 148kts
18-Jul-18 09:17 35.310675 -119.046476 146 8938ft 148kts
18-Jul-18 09:18 35.272479 -119.018652 152 9061ft 167kts
18-Jul-18 09:19 35.232119 -118.988330 145 9139ft 174kts
18-Jul-18 09:20 35.189995 -118.952190 147 9001ft 192kts
18-Jul-18 09:21 35.144851 -118.917440 148 8918ft 193kts
18-Jul-18 09:22 35.100699 -118.883928 148 9127ft 188kts
18-Jul-18 09:23 35.054578 -118.851557 149 9369ft 192kts
18-Jul-18 09:24 35.008441 -118.816305 146 9367ft 206kts
18-Jul-18 09:25 34.959170 -118.781347 148 9267ft 206kts
18-Jul-18 09:26 34.910580 -118.745890 147 9235ft 206kts
18-Jul-18 09:27 34.863695 -118.711112 145 9085ft 210kts
18-Jul-18 09:28 34.814187 -118.673443 147 9022ft 211kts
18-Jul-18 09:29 34.763072 -118.638452 148 9004ft 209kts
18-Jul-18 09:30 34.712745 -118.602502 145 9033ft 211kts
18-Jul-18 09:31 34.661625 -118.567170 151 9032ft 210kts
18-Jul-18 09:32 34.610233 -118.534337 149 9014ft 211kts
18-Jul-18 09:33 34.559519 -118.501632 151 8925ft 207kts
18-Jul-18 09:34 34.509492 -118.471479 151 9070ft 194kts
18-Jul-18 09:35 34.459438 -118.445698 156 9063ft 200kts
18-Jul-18 09:36 34.408178 -118.422223 157 9049ft 198kts
18-Jul-18 09:37 34.357364 -118.393568 150 8575ft 207kts
18-Jul-18 09:38 34.307374 -118.359947 148 8039ft 205kts
18-Jul-18 09:39 34.260787 -118.330223 153 7577ft 204kts
18-Jul-18 09:40 34.210560 -118.299408 152 7174ft 203kts
18-Jul-18 09:41 34.161610 -118.267684 136 6716ft 207kts
18-Jul-18 09:42 34.138914 -118.204739 108 5781ft 211kts
18-Jul-18 09:43 34.118217 -118.139557 110 5070ft 209kts
18-Jul-18 09:44 34.099005 -118.076518 110 4949ft 198kts
18-Jul-18 09:45 34.080983 -118.016412 110 4925ft 190kts
18-Jul-18 09:46 34.062979 -117.959866 112 4954ft 173kts
18-Jul-18 09:47 34.046627 -117.906061 111 4933ft 170kts
18-Jul-18 09:48 34.031515 -117.853958 108 4983ft 166kts
18-Jul-18 09:49 34.002243 -117.816917 182 4651ft 167kts
18-Jul-18 09:50 33.961863 -117.842375 205 4013ft 168kts
18-Jul-18 09:51 33.922012 -117.865560 203 3817ft 154kts
18-Jul-18 09:52 33.884866 -117.875407 149 3933ft 149kts
18-Jul-18 09:53 33.875267 -117.827519 90 3923ft 161kts
18-Jul-18 09:54 33.874371 -117.773967 91 3909ft 163kts
18-Jul-18 09:55 33.872735 -117.720217 91 4015ft 161kts
18-Jul-18 09:56 33.870928 -117.667004 89 3933ft 159kts
18-Jul-18 09:57 33.873123 -117.616840 57 3867ft 147kts
18-Jul-18 09:58 33.898642 -117.626215 281 3897ft 143kts
18-Jul-18 09:59 33.903398 -117.673948 275 3973ft 146kts
18-Jul-18 10:00 33.904734 -117.721056 269 3713ft 142kts
18-Jul-18 10:01 33.907442 -117.769452 270 3116ft 152kts
18-Jul-18 10:02 33.899939 -117.819906 259 2598ft 147kts
18-Jul-18 10:03 33.893892 -117.859623 259 2064ft 143kts
18-Jul-18 10:04 33.886317 -117.905231 256 1514ft 131kts
18-Jul-18 10:05 33.878520 -117.947379 255 749ft 89kts
18-Jul-18 10:06 33.872503 -117.977608 254 93ft 67kts
18-Jul-18 10:07 33.870647 -117.984651 152 87ft 0kts

Navigation Log

Ident Type
Flight plan parsing failed, navigation log unavailable